createdAt,value
2023-05-16T00:00:43.941Z,100424.09
2023-05-16T00:03:12.384Z,100428.41
2023-05-16T00:05:39.547Z,100426.63
2023-05-16T00:08:06.619Z,100425.69
2023-05-16T00:10:33.757Z,100416.16
2023-05-16T00:13:02.150Z,100416.97
2023-05-16T00:15:32.196Z,100412.69
2023-05-16T00:17:59.680Z,100420.34
2023-05-16T00:20:28.616Z,100421.94
2023-05-16T00:22:56.146Z,100419.25
2023-05-16T00:25:23.307Z,100420.06
2023-05-16T00:27:50.503Z,100420.06
2023-05-16T00:30:17.588Z,100416.69
2023-05-16T00:32:44.803Z,100423.50
2023-05-16T00:35:12.685Z,100430.31
2023-05-16T00:37:39.794Z,100432.72
2023-05-16T00:40:07.738Z,100428.25
2023-05-16T00:42:36.429Z,100420.34
2023-05-16T00:45:05.429Z,100422.81
2023-05-16T00:47:32.936Z,100426.22
2023-05-16T00:49:59.990Z,100411.50
2023-05-16T00:52:27.194Z,100415.06
2023-05-16T00:54:54.254Z,100416.00
2023-05-16T00:57:21.148Z,100416.84
2023-05-16T00:59:48.146Z,100420.28
2023-05-16T01:02:15.340Z,100419.38
2023-05-16T01:04:43.425Z,100413.25
2023-05-16T01:07:10.650Z,100415.00
2023-05-16T01:09:37.664Z,100413.31
2023-05-16T01:12:42.174Z,100408.97
2023-05-16T01:15:16.416Z,100415.88
2023-05-16T01:18:02.094Z,100414.09
2023-05-16T01:20:41.913Z,100408.88
2023-05-16T01:23:46.459Z,100416.56
2023-05-16T01:26:16.859Z,100423.25
2023-05-16T01:28:45.547Z,100432.59
2023-05-16T01:31:12.713Z,100436.03
2023-05-16T01:33:39.775Z,100434.31
2023-05-16T01:36:14.684Z,100432.53
2023-05-16T01:39:14.611Z,100432.53
2023-05-16T01:42:06.340Z,100435.16
2023-05-16T01:45:10.545Z,100440.38
2023-05-16T01:47:38.706Z,100435.09
2023-05-16T01:50:10.953Z,100436.03
2023-05-16T01:52:46.368Z,100436.91
2023-05-16T01:55:47.614Z,100436.97
2023-05-16T01:58:15.461Z,100444.78
2023-05-16T02:00:42.878Z,100446.41
2023-05-16T02:03:10.025Z,100453.19
2023-05-16T02:05:38.442Z,100443.69
2023-05-16T02:08:05.743Z,100454.16
2023-05-16T02:10:33.011Z,100453.25
2023-05-16T02:13:00.767Z,100454.09
2023-05-16T02:15:29.160Z,100448.84
2023-05-16T02:17:56.754Z,100452.28
2023-05-16T02:20:24.011Z,100456.50
2023-05-16T02:22:51.087Z,100460.88
2023-05-16T02:25:18.376Z,100463.53
2023-05-16T02:27:45.578Z,100467.03
2023-05-16T02:30:13.199Z,100465.44
2023-05-16T02:32:41.198Z,100469.97
2023-05-16T02:35:09.224Z,100470.97
2023-05-16T02:37:36.239Z,100470.22
2023-05-16T02:40:05.883Z,100457.41
2023-05-16T02:42:33.353Z,100461.00
2023-05-16T02:45:00.615Z,100454.91
2023-05-16T02:47:27.768Z,100448.88
2023-05-16T02:49:54.694Z,100456.75
2023-05-16T02:52:21.717Z,100449.00
2023-05-16T02:55:00.280Z,100454.16
2023-05-16T02:57:31.812Z,100458.47
2023-05-16T02:59:59.216Z,100454.16
2023-05-16T03:02:26.593Z,100457.69
2023-05-16T03:04:53.714Z,100448.25
2023-05-16T03:07:20.790Z,100456.94
2023-05-16T03:09:47.963Z,100455.34
2023-05-16T03:12:14.940Z,100455.44
2023-05-16T03:14:41.863Z,100454.69
2023-05-16T03:17:10.226Z,100456.59
2023-05-16T03:19:37.275Z,100464.44
2023-05-16T03:22:04.535Z,100463.78
2023-05-16T03:24:31.776Z,100457.91
2023-05-16T03:27:00.164Z,100464.97
2023-05-16T03:29:27.208Z,100465.13
2023-05-16T03:31:54.578Z,100474.00
2023-05-16T03:34:21.834Z,100471.56
2023-05-16T03:36:49.522Z,100472.69
2023-05-16T03:39:17.219Z,100467.72
2023-05-16T03:41:44.510Z,100473.94
2023-05-16T05:42:39.338Z,100509.09
2023-05-16T05:45:07.756Z,100504.69
2023-05-16T05:47:34.884Z,100504.63
2023-05-16T05:50:02.739Z,100507.97
2023-05-16T05:52:32.628Z,100505.97
2023-05-16T05:55:00.200Z,100504.97
2023-05-16T05:57:27.314Z,100507.38
2023-05-16T05:59:54.417Z,100506.41
2023-05-16T06:02:23.831Z,100508.09
2023-05-16T06:04:50.793Z,100510.56
2023-05-16T06:07:18.474Z,100508.69
2023-05-16T06:09:45.593Z,100517.31
2023-05-16T06:12:12.901Z,100516.13
2023-05-16T06:14:39.930Z,100514.09
2023-05-16T06:17:07.098Z,100522.59
2023-05-16T06:19:34.225Z,100526.06
2023-05-16T06:22:01.261Z,100525.06
2023-05-16T06:24:29.918Z,100529.53
2023-05-16T06:26:56.882Z,100527.91
2023-05-16T06:29:24.076Z,100541.63
2023-05-16T06:31:51.269Z,100539.06
2023-05-16T06:34:18.373Z,100528.25
2023-05-16T06:36:45.403Z,100535.81
2023-05-16T06:39:12.493Z,100539.06
2023-05-16T06:41:39.830Z,100542.66
2023-05-16T06:44:07.096Z,100543.38
2023-05-16T06:46:34.223Z,100540.41
2023-05-16T06:49:01.500Z,100538.50
2023-05-16T06:51:28.606Z,100539.88
2023-05-16T06:53:55.892Z,100535.09
2023-05-16T06:56:23.651Z,100526.50
2023-05-16T06:58:51.148Z,100527.91
2023-05-16T07:01:18.510Z,100534.16
2023-05-16T07:03:45.985Z,100535.72
2023-05-16T07:06:13.109Z,100539.88
2023-05-16T07:08:40.354Z,100530.94
2023-05-16T07:11:07.425Z,100529.94
2023-05-16T07:13:36.154Z,100534.97
2023-05-16T07:16:03.909Z,100538.97
2023-05-16T07:18:31.225Z,100539.66
2023-05-16T07:20:58.475Z,100539.16
2023-05-16T07:23:25.504Z,100533.88
2023-05-16T07:25:53.465Z,100529.72
2023-05-16T07:28:20.649Z,100526.16
2023-05-16T07:30:47.812Z,100527.78
2023-05-16T07:33:14.959Z,100530.91
2023-05-16T07:35:42.131Z,100526.25
2023-05-16T07:38:09.199Z,100518.78
2023-05-16T07:40:36.648Z,100517.53
2023-05-16T07:43:04.571Z,100517.16
2023-05-16T07:45:31.753Z,100513.47
2023-05-16T07:48:24.148Z,100526.91
2023-05-16T07:50:51.338Z,100517.16
2023-05-16T07:53:18.932Z,100520.88
2023-05-16T07:55:45.878Z,100523.13
2023-05-16T07:58:12.976Z,100522.03
2023-05-16T08:00:40.238Z,100518.44
2023-05-16T08:03:07.717Z,100505.53
2023-05-16T08:05:35.104Z,100513.09
2023-05-16T08:08:02.299Z,100517.31
2023-05-16T08:10:29.382Z,100506.06
2023-05-16T08:12:56.490Z,100507.09
2023-05-16T08:15:23.764Z,100512.94
2023-05-16T08:17:51.404Z,100513.25
2023-05-16T08:20:18.691Z,100512.22
2023-05-16T08:22:45.795Z,100512.09
2023-05-16T08:25:13.615Z,100492.53
2023-05-16T08:27:40.854Z,100485.31
2023-05-16T08:30:08.590Z,100483.00
2023-05-16T08:32:35.871Z,100486.56
2023-05-16T08:35:03.016Z,100490.09
2023-05-16T08:37:31.173Z,100483.56
2023-05-16T08:39:58.936Z,100487.81
2023-05-16T08:42:26.061Z,100482.88
2023-05-16T08:44:53.487Z,100475.81
2023-05-16T08:47:23.421Z,100472.38
2023-05-16T08:49:51.892Z,100468.25
2023-05-16T08:52:19.766Z,100461.31
2023-05-16T08:54:50.355Z,100464.63
2023-05-16T08:57:22.880Z,100467.69
2023-05-16T08:59:50.107Z,100469.94
2023-05-16T09:02:17.300Z,100479.56
2023-05-16T09:04:44.441Z,100472.47
2023-05-16T09:07:12.025Z,100476.81
2023-05-16T09:09:39.766Z,100478.44
2023-05-16T09:12:07.406Z,100471.91
2023-05-16T09:14:35.882Z,100464.03
2023-05-16T09:17:07.030Z,100461.72
2023-05-16T09:19:41.389Z,100465.66
2023-05-16T09:22:15.146Z,100468.06
2023-05-16T09:24:43.191Z,100466.09
2023-05-16T09:27:10.897Z,100467.34
2023-05-16T09:29:40.525Z,100457.66
2023-05-16T09:32:14.940Z,100460.53
2023-05-16T09:34:46.249Z,100457.41
2023-05-16T09:37:13.494Z,100446.28
2023-05-16T09:39:46.245Z,100446.78
2023-05-16T09:42:14.251Z,100444.81
2023-05-16T09:44:42.075Z,100452.84
2023-05-16T09:47:09.191Z,100449.59
2023-05-16T09:49:37.779Z,100448.38
2023-05-16T09:52:05.493Z,100439.66
2023-05-16T09:54:33.418Z,100442.69
2023-05-16T09:57:03.009Z,100443.09
2023-05-16T09:59:31.283Z,100444.28
2023-05-16T10:02:00.355Z,100440.06
2023-05-16T10:04:27.712Z,100437.00
2023-05-16T10:06:56.919Z,100436.72
2023-05-16T10:09:24.852Z,100429.44
2023-05-16T10:11:52.483Z,100434.66
2023-05-16T10:14:19.731Z,100425.59
2023-05-16T10:16:47.505Z,100431.69
2023-05-16T10:19:16.498Z,100437.03
2023-05-16T10:21:46.799Z,100425.78
2023-05-16T10:24:13.815Z,100429.34
2023-05-16T10:26:40.873Z,100419.00
2023-05-16T10:29:07.982Z,100415.56
2023-05-16T10:31:34.999Z,100414.69
2023-05-16T10:34:02.311Z,100418.09
2023-05-16T10:36:29.323Z,100421.94
2023-05-16T10:38:56.387Z,100418.69
2023-05-16T10:41:23.610Z,100422.47
2023-05-16T10:44:00.342Z,100415.69
2023-05-16T10:46:28.466Z,100422.72
2023-05-16T10:48:57.139Z,100415.69
2023-05-16T10:51:38.832Z,100411.19
2023-05-16T10:54:11.427Z,100413.44
2023-05-16T10:56:38.828Z,100417.94
2023-05-16T10:59:06.267Z,100409.34
2023-05-16T11:01:34.382Z,100411.94
2023-05-16T11:04:08.893Z,100399.22
2023-05-16T11:06:47.453Z,100405.50
2023-05-16T11:09:14.424Z,100396.63
2023-05-16T11:11:52.569Z,100399.25
2023-05-16T11:14:34.899Z,100398.81
2023-05-16T11:17:15.123Z,100396.69
2023-05-16T11:19:49.617Z,100388.00
2023-05-16T11:22:19.476Z,100379.16
2023-05-16T11:24:57.690Z,100376.25
2023-05-16T11:27:25.937Z,100390.47
2023-05-16T11:29:54.054Z,100372.19
2023-05-16T11:32:22.362Z,100379.84
2023-05-16T11:34:50.708Z,100371.44
2023-05-16T11:37:18.094Z,100376.25
2023-05-16T11:39:45.703Z,100367.03
2023-05-16T11:42:13.495Z,100369.03
2023-05-16T11:44:41.209Z,100369.63
2023-05-16T11:47:08.779Z,100368.09
2023-05-16T11:49:35.882Z,100357.56
2023-05-16T11:52:03.849Z,100360.28
2023-05-16T11:54:32.076Z,100354.78
2023-05-16T11:56:59.288Z,100354.41
2023-05-16T11:59:27.294Z,100354.03
2023-05-16T12:01:54.379Z,100351.94
2023-05-16T12:04:22.502Z,100345.31
2023-05-16T12:06:59.663Z,100351.56
2023-05-16T12:09:26.993Z,100340.28
2023-05-16T12:11:54.161Z,100341.69
2023-05-16T12:14:21.502Z,100342.88
2023-05-16T12:16:52.566Z,100334.03
2023-05-16T12:19:21.546Z,100341.03
2023-05-16T12:21:58.113Z,100333.28
2023-05-16T12:24:33.153Z,100342.22
2023-05-16T12:27:01.021Z,100342.84
2023-05-16T12:29:29.905Z,100334.69
2023-05-16T12:32:07.195Z,100335.06
2023-05-16T12:34:36.252Z,100342.47
2023-05-16T12:37:05.449Z,100335.09
2023-05-16T12:39:42.426Z,100336.16
2023-05-16T12:42:14.219Z,100340.06
2023-05-16T12:44:46.471Z,100331.59
2023-05-16T12:47:23.349Z,100323.97
2023-05-16T12:49:55.195Z,100318.16
2023-05-16T12:52:29.945Z,100320.88
2023-05-16T12:55:04.989Z,100317.75
2023-05-16T13:00:23.747Z,100320.16
2023-05-16T13:02:56.107Z,100329.25
2023-05-16T13:05:28.753Z,100328.56
2023-05-16T13:08:00.222Z,100327.88
2023-05-16T13:10:37.016Z,100328.03
2023-05-16T13:13:13.704Z,100327.34
2023-05-16T13:15:50.087Z,100328.44
2023-05-16T13:18:22.845Z,100323.09
2023-05-16T13:20:52.175Z,100326.75
2023-05-16T13:23:21.914Z,100315.47
2023-05-16T13:26:00.282Z,100326.03
2023-05-16T13:28:33.541Z,100317.22
2023-05-16T13:31:06.601Z,100318.09
2023-05-16T13:33:37.183Z,100325.94
2023-05-16T13:36:09.573Z,100324.31
2023-05-16T13:38:47.512Z,100325.34
2023-05-16T13:41:19.485Z,100328.19
2023-05-16T13:43:49.804Z,100325.78
2023-05-16T13:46:22.479Z,100321.44
2023-05-16T13:49:01.921Z,100322.44
2023-05-16T13:51:32.954Z,100323.69
2023-05-16T13:54:05.893Z,100317.91
2023-05-16T13:56:36.291Z,100308.69
2023-05-16T13:59:07.285Z,100316.84
2023-05-16T14:01:44.003Z,100315.53
2023-05-16T14:04:13.241Z,100318.81
2023-05-16T14:06:45.720Z,100317.28
2023-05-16T14:09:24.205Z,100312.69
2023-05-16T14:11:53.687Z,100311.72
2023-05-16T14:14:26.508Z,100297.59
2023-05-16T14:16:55.881Z,100300.13
2023-05-16T14:19:26.693Z,100300.13
2023-05-16T14:21:53.935Z,100293.16
2023-05-16T14:24:21.232Z,100299.50
2023-05-16T14:26:48.436Z,100297.09
2023-05-16T14:29:15.660Z,100305.06
2023-05-16T14:31:43.101Z,100307.06
2023-05-16T14:34:10.569Z,100303.69
2023-05-16T14:36:37.842Z,100300.34
2023-05-16T14:39:04.870Z,100306.59
2023-05-16T14:41:31.983Z,100303.09
2023-05-16T14:43:59.056Z,100305.81
2023-05-16T14:46:26.330Z,100301.50
2023-05-16T14:48:53.526Z,100299.81
2023-05-16T14:51:20.914Z,100307.72
2023-05-16T14:53:47.964Z,100306.03
2023-05-16T14:56:15.210Z,100306.06
2023-05-16T14:58:42.263Z,100308.97
2023-05-16T15:01:09.568Z,100303.78
2023-05-16T15:03:53.614Z,100308.38
2023-05-16T15:06:24.024Z,100304.88
2023-05-16T15:08:51.512Z,100306.69
2023-05-16T15:11:18.552Z,100302.44
2023-05-16T15:13:46.451Z,100313.03
2023-05-16T15:16:13.566Z,100321.91
2023-05-16T15:18:41.788Z,100306.31
2023-05-16T15:21:09.273Z,100305.50
2023-05-16T15:23:36.753Z,100308.13
2023-05-16T15:26:04.475Z,100308.19
2023-05-16T15:28:31.615Z,100305.66
2023-05-16T15:30:58.659Z,100306.69
2023-05-16T15:33:25.813Z,100304.16
2023-05-16T15:35:53.031Z,100310.47
2023-05-16T15:38:20.100Z,100308.75
2023-05-16T15:40:49.104Z,100312.28
2023-05-16T15:43:19.836Z,100306.22
2023-05-16T15:45:46.786Z,100308.09
2023-05-16T15:48:13.950Z,100310.78
2023-05-16T15:50:42.075Z,100313.56
2023-05-16T15:53:09.088Z,100318.06
2023-05-16T15:55:37.585Z,100314.69
2023-05-16T15:58:05.719Z,100319.16
2023-05-16T16:00:32.999Z,100315.72
2023-05-16T16:03:00.344Z,100318.34
2023-05-16T16:05:27.946Z,100319.34
2023-05-16T16:07:55.464Z,100318.56
2023-05-16T16:10:24.683Z,100319.53
2023-05-16T16:13:04.358Z,100323.13
2023-05-16T16:15:33.269Z,100323.28
2023-05-16T16:18:01.270Z,100321.63
2023-05-16T16:20:28.652Z,100328.69
2023-05-16T16:22:56.021Z,100322.72
2023-05-16T16:25:23.052Z,100321.09
2023-05-16T16:27:50.428Z,100322.91
2023-05-16T16:30:17.757Z,100327.41
2023-05-16T16:32:44.749Z,100318.78
2023-05-16T16:35:12.140Z,100330.28
2023-05-16T16:37:39.243Z,100338.25
2023-05-16T16:40:09.264Z,100334.09
2023-05-16T16:42:38.145Z,100334.28
2023-05-16T16:45:06.056Z,100328.34
2023-05-16T16:47:34.008Z,100332.97
2023-05-16T16:50:01.481Z,100332.25
2023-05-16T16:52:29.908Z,100333.31
2023-05-16T16:54:57.018Z,100334.38
2023-05-16T16:57:24.108Z,100329.28
2023-05-16T16:59:51.862Z,100332.06
2023-05-16T17:02:19.090Z,100332.28
2023-05-16T17:04:46.360Z,100339.47
2023-05-16T17:07:14.047Z,100337.94
2023-05-16T17:09:43.092Z,100341.63
2023-05-16T17:12:18.893Z,100345.22
2023-05-16T17:14:47.803Z,100343.69
2023-05-16T17:17:15.862Z,100349.06
2023-05-16T17:19:42.997Z,100348.31
2023-05-16T17:22:10.013Z,100350.16
2023-05-16T17:24:37.217Z,100355.50
2023-05-16T17:27:04.842Z,100353.84
2023-05-16T17:29:31.831Z,100360.94
2023-05-16T17:31:59.206Z,100361.94
2023-05-16T17:34:26.926Z,100369.03
2023-05-16T17:36:54.119Z,100362.13
2023-05-16T17:39:21.452Z,100364.91
2023-05-16T17:41:48.602Z,100364.94
2023-05-16T17:44:15.582Z,100365.03
2023-05-16T17:46:43.108Z,100366.00
2023-05-16T17:49:10.737Z,100366.94
2023-05-16T17:51:50.356Z,100367.88
2023-05-16T17:54:18.671Z,100366.16
2023-05-16T17:56:46.668Z,100365.34
2023-05-16T17:59:13.964Z,100364.53
2023-05-16T18:01:41.175Z,100370.66
2023-05-16T18:04:08.381Z,100369.84
2023-05-16T18:06:39.189Z,100373.38
2023-05-16T18:09:07.303Z,100373.41
2023-05-16T18:11:34.826Z,100363.88
2023-05-16T18:14:02.199Z,100363.91
2023-05-16T18:16:32.360Z,100374.38
2023-05-16T18:18:59.860Z,100375.25
2023-05-16T18:21:26.952Z,100368.31
2023-05-16T18:23:59.096Z,100366.63
2023-05-16T18:26:27.822Z,100375.38
2023-05-16T18:28:55.019Z,100371.91
2023-05-16T18:31:22.442Z,100377.16
2023-05-16T18:33:50.022Z,100371.94
2023-05-16T18:36:17.216Z,100371.06
2023-05-16T18:38:44.585Z,100365.88
2023-05-16T18:41:11.697Z,100379.78
2023-05-16T18:43:41.876Z,100380.66
2023-05-16T18:46:09.338Z,100377.19
2023-05-16T18:48:36.505Z,100382.41
2023-05-16T18:51:03.944Z,100380.66
2023-05-16T18:53:31.221Z,100378.97
2023-05-16T18:55:58.865Z,100379.84
2023-05-16T18:58:26.280Z,100385.06
2023-05-16T19:00:53.572Z,100392.00
2023-05-16T19:03:20.809Z,100396.31
2023-05-16T19:05:48.331Z,100385.91
2023-05-16T19:08:15.576Z,100392.88
2023-05-16T19:10:42.672Z,100398.06
2023-05-16T19:13:10.062Z,100396.31
2023-05-16T19:15:37.842Z,100396.31
2023-05-16T19:18:05.518Z,100398.91
2023-05-16T19:20:35.771Z,100389.38
2023-05-16T19:23:04.104Z,100394.56
2023-05-16T19:25:31.484Z,100395.41
2023-05-16T19:27:59.232Z,100393.66
2023-05-16T19:30:26.620Z,100400.59
2023-05-16T19:32:54.122Z,100392.81
2023-05-16T19:35:22.006Z,100398.00
2023-05-16T19:37:48.982Z,100399.75
2023-05-16T19:40:17.426Z,100403.19
2023-05-16T19:42:44.777Z,100402.34
2023-05-16T19:45:12.134Z,100404.03
2023-05-16T19:47:39.768Z,100403.13
2023-05-16T19:50:07.458Z,100401.41
2023-05-16T19:52:34.898Z,100397.06
2023-05-16T19:55:02.507Z,100401.38
2023-05-16T19:57:31.591Z,100403.94
2023-05-16T19:59:58.798Z,100401.31
2023-05-16T20:02:26.211Z,100397.84
2023-05-16T20:04:53.981Z,100402.16
2023-05-16T20:07:21.368Z,100400.41
2023-05-16T20:09:48.518Z,100401.28
2023-05-16T20:12:15.936Z,100395.19
2023-05-16T20:14:43.140Z,100401.25
2023-05-16T20:17:10.656Z,100409.03
2023-05-16T20:19:43.710Z,100406.41
2023-05-16T20:22:11.119Z,100408.13
2023-05-16T20:24:38.268Z,100413.31
2023-05-16T20:27:05.515Z,100404.66
2023-05-16T20:29:33.989Z,100406.38
2023-05-16T20:32:03.390Z,100402.84
2023-05-16T20:34:33.430Z,100410.63
2023-05-16T20:37:00.937Z,100414.94
2023-05-16T20:39:28.950Z,100416.66
2023-05-16T20:41:56.144Z,100412.31
2023-05-16T20:44:23.357Z,100415.75
2023-05-16T20:46:50.691Z,100417.47
2023-05-16T20:49:17.804Z,100413.13
2023-05-16T20:51:44.927Z,100416.53
2023-05-16T20:54:13.170Z,100408.75
2023-05-16T20:56:40.205Z,100411.34
2023-05-16T20:59:07.303Z,100403.50
2023-05-16T21:01:34.358Z,100403.47
2023-05-16T21:04:01.763Z,100401.72
2023-05-16T21:06:28.929Z,100404.31
2023-05-16T21:08:56.261Z,100402.59
2023-05-16T21:11:23.632Z,100401.72
2023-05-16T21:13:50.789Z,100403.41
2023-05-16T21:16:17.911Z,100401.63
2023-05-16T21:18:45.099Z,100402.50
2023-05-16T21:21:12.244Z,100398.97
2023-05-16T21:23:39.527Z,100390.31
2023-05-16T21:26:06.719Z,100393.75
2023-05-16T21:28:36.943Z,100391.13
2023-05-16T21:31:08.165Z,100390.25
2023-05-16T21:33:35.269Z,100388.47
2023-05-16T21:36:02.391Z,100390.22
2023-05-16T21:38:29.427Z,100390.19
2023-05-16T21:40:58.132Z,100390.16
2023-05-16T21:43:25.307Z,100384.97
2023-05-16T21:45:52.549Z,100387.53
2023-05-16T21:48:19.984Z,100384.91
2023-05-16T21:50:47.079Z,100385.75
2023-05-16T21:53:14.164Z,100385.69
2023-05-16T21:55:41.216Z,100393.47
2023-05-16T21:58:09.199Z,100391.72
2023-05-16T22:00:36.500Z,100386.47
2023-05-16T22:03:03.737Z,100394.22
2023-05-16T22:05:31.460Z,100385.53
2023-05-16T22:07:58.650Z,100389.81
2023-05-16T22:10:25.681Z,100393.19
2023-05-16T22:12:52.791Z,100393.13
2023-05-16T22:15:19.968Z,100395.66
2023-05-16T22:17:48.229Z,100397.44
2023-05-16T22:20:15.591Z,100395.72
2023-05-16T22:22:44.733Z,100395.69
2023-05-16T22:25:11.820Z,100396.53
2023-05-16T22:27:39.411Z,100395.59
2023-05-16T22:30:07.358Z,100394.63
2023-05-16T22:32:34.451Z,100397.19
2023-05-16T22:35:01.810Z,100405.81
2023-05-16T22:37:32.452Z,100400.59
2023-05-16T22:39:59.568Z,100399.69
2023-05-16T22:42:26.529Z,100403.16
2023-05-16T22:44:53.717Z,100401.38
2023-05-16T22:47:21.026Z,100408.28
2023-05-16T22:49:48.248Z,100403.91
2023-05-16T22:52:15.835Z,100403.00
2023-05-16T22:54:42.932Z,100406.38
2023-05-16T22:57:09.981Z,100412.38
2023-05-16T22:59:37.023Z,100411.53
2023-05-16T23:02:04.033Z,100415.81
2023-05-16T23:04:31.051Z,100410.63
2023-05-16T23:06:58.060Z,100406.31
2023-05-16T23:09:25.414Z,100417.50
2023-05-16T23:11:52.765Z,100415.72
2023-05-16T23:14:19.899Z,100420.91
2023-05-16T23:16:46.955Z,100419.16
2023-05-16T23:19:14.154Z,100421.72
2023-05-16T23:21:41.302Z,100420.78
2023-05-16T23:24:08.518Z,100421.56
2023-05-16T23:26:35.816Z,100425.00
2023-05-16T23:29:03.149Z,100418.94
2023-05-16T23:31:30.214Z,100420.69
2023-05-16T23:33:57.389Z,100428.44
2023-05-16T23:36:25.037Z,100430.13
2023-05-16T23:38:52.155Z,100430.06
2023-05-16T23:41:19.527Z,100423.09
2023-05-16T23:43:46.548Z,100432.59
2023-05-16T23:46:13.875Z,100428.25
2023-05-16T23:48:41.102Z,100430.00
2023-05-16T23:51:08.341Z,100417.03
2023-05-16T23:53:35.658Z,100424.81
2023-05-16T23:56:02.737Z,100425.72
2023-05-16T23:58:29.797Z,100433.56
